Wetterdaten: Woche 10.12.12 - 16.12.12 (KW50)
Datum Zeit Temp. A. Feuchte A. Luftdruck Regen Wind Richtung Taupunkt Windchill Windben
10.12.2012 00:00 1,9 C 80 % 1010,8 hPa 0,0 l/m 4,6 km/h N -1,2 C 1,8 C 18,9 km/h
10.12.2012 01:00 2,9 C 73 % 1010,0 hPa 0,0 l/m 8,9 km/h N -1,5 C 0,7 C 27,4 km/h
10.12.2012 02:00 2,7 C 71 % 1009,6 hPa 0,0 l/m 5,7 km/h N -2,0 C 2,4 C 23,7 km/h
10.12.2012 03:00 -0,3 C 70 % 1009,3 hPa 0,0 l/m 2,7 km/h N -5,2 C -0,3 C 9,2 km/h
10.12.2012 04:00 0,7 C 78 % 1008,6 hPa 0,0 l/m 2,3 km/h N -2,7 C 0,7 C 9,6 km/h
10.12.2012 05:00 -0,4 C 73 % 1008,5 hPa 0,0 l/m 1,6 km/h N -4,7 C -0,4 C 9,2 km/h
10.12.2012 06:00 -1,1 C 77 % 1008,3 hPa 0,0 l/m 0,5 km/h N -4,6 C -1,1 C 4,4 km/h
10.12.2012 07:00 -0,9 C 78 % 1008,3 hPa 0,0 l/m 0,5 km/h N -4,3 C -0,9 C 4,8 km/h
10.12.2012 08:00 -0,7 C 76 % 1008,3 hPa 0,0 l/m 1,9 km/h N -4,3 C -0,7 C 7,2 km/h
10.12.2012 09:00 0,2 C 74 % 1008,1 hPa 0,0 l/m 2,6 km/h N -3,9 C 0,2 C 9,6 km/h
10.12.2012 10:00 0,3 C 74 % 1008,1 hPa 0,0 l/m 1,7 km/h N -3,9 C 0,3 C 7,6 km/h
10.12.2012 11:00 2,6 C 76 % 1007,3 hPa 0,0 l/m 6,0 km/h N -1,3 C 1,3 C 21,7 km/h
10.12.2012 12:00 5,2 C 67 % 1006,3 hPa 0,0 l/m 7,2 km/h N -0,4 C 3,9 C 25,8 km/h
10.12.2012 13:00 5,6 C 65 % 1006,2 hPa 0,0 l/m 6,6 km/h N -0,6 C 4,5 C 22,1 km/h
10.12.2012 14:00 4,6 C 70 % 1006,3 hPa 0,0 l/m 6,0 km/h N -0,4 C 4,5 C 21,7 km/h
10.12.2012 15:00 4,3 C 69 % 1006,5 hPa 0,0 l/m 5,9 km/h N -0,9 C 4,3 C 19,3 km/h
10.12.2012 16:00 4,0 C 68 % 1006,6 hPa 0,0 l/m 5,7 km/h N -1,3 C 3,7 C 18,9 km/h
10.12.2012 17:00 3,7 C 68 % 1007,0 hPa 0,0 l/m 4,6 km/h N -1,8 C 3,7 C 15,7 km/h
10.12.2012 18:00 3,5 C 69 % 1007,5 hPa 0,0 l/m 5,6 km/h N -1,7 C 3,3 C 18,5 km/h
10.12.2012 19:00 3,4 C 70 % 1007,9 hPa 0,0 l/m 6,4 km/h N -1,5 C 3,1 C 20,9 km/h
10.12.2012 20:00 3,2 C 70 % 1008,2 hPa 0,0 l/m 4,6 km/h N -1,7 C 3,2 C 15,3 km/h
10.12.2012 21:00 3,1 C 74 % 1008,5 hPa 0,0 l/m 5,3 km/h N -1,2 C 3,1 C 17,7 km/h
10.12.2012 22:00 2,7 C 76 % 1008,6 hPa 0,0 l/m 6,4 km/h N -1,1 C 2,5 C 20,5 km/h
10.12.2012 23:00 2,4 C 80 % 1008,8 hPa 0,0 l/m 4,6 km/h N -0,8 C 2,4 C 15,7 km/h
11.12.2012 00:00 2,1 C 82 % 1008,8 hPa 0,0 l/m 3,0 km/h N -0,7 C 2,1 C 9,6 km/h
11.12.2012 01:00 2,0 C 80 % 1009,1 hPa 0,0 l/m 2,0 km/h N -1,0 C 2,0 C 8,8 km/h
11.12.2012 02:00 2,1 C 79 % 1009,3 hPa 0,0 l/m 5,6 km/h N -1,1 C 2,1 C 15,3 km/h
11.12.2012 03:00 2,0 C 81 % 1009,5 hPa 0,0 l/m 4,5 km/h N -1,0 C 2,0 C 16,9 km/h
11.12.2012 04:00 1,2 C 84 % 1009,9 hPa 0,3 l/m 8,9 km/h N -1,2 C -1,2 C 23,6 km/h
11.12.2012 05:00 0,8 C 84 % 1010,1 hPa 0,0 l/m 6,4 km/h N -1,6 C 0,8 C 20,1 km/h
11.12.2012 06:00 0,9 C 85 % 1010,8 hPa 0,0 l/m 6,4 km/h N -1,3 C 1,0 C 17,7 km/h
11.12.2012 07:00 0,9 C 85 % 1011,3 hPa 0,3 l/m 6,4 km/h N -1,4 C 0,0 C 20,1 km/h
11.12.2012 08:00 0,8 C 85 % 1012,2 hPa 0,3 l/m 9,0 km/h N -1,5 C -2,0 C 23,6 km/h
11.12.2012 09:00 0,8 C 85 % 1012,8 hPa 0,8 l/m 8,6 km/h N -1,5 C -1,4 C 20,5 km/h
11.12.2012 10:00 0,6 C 85 % 1013,4 hPa 0,5 l/m 7,5 km/h N -1,7 C -0,5 C 18,9 km/h
11.12.2012 11:00 0,3 C 84 % 1013,8 hPa 0,0 l/m 8,4 km/h N -2,0 C -1,6 C 20,1 km/h
11.12.2012 12:00 -0,4 C 85 % 1014,5 hPa 0,0 l/m 10,9 km/h N -2,7 C -4,5 C 24,1 km/h
11.12.2012 13:00 -1,1 C 84 % 1015,3 hPa 0,0 l/m 12,1 km/h N -3,5 C -6,3 C 28,6 km/h
11.12.2012 14:00 -1,6 C 84 % 1016,1 hPa 0,0 l/m 11,8 km/h N -4,0 C -6,7 C 25,7 km/h
11.12.2012 15:00 -2,2 C 85 % 1017,1 hPa 0,0 l/m 11,6 km/h N -4,4 C -7,2 C 28,2 km/h
11.12.2012 16:00 -2,5 C 84 % 1017,7 hPa 0,0 l/m 6,7 km/h N -4,8 C -3,1 C 16,9 km/h
11.12.2012 17:00 -2,3 C 86 % 1017,8 hPa 0,0 l/m 9,6 km/h N -4,4 C -5,6 C 22,1 km/h
11.12.2012 18:00 -2,3 C 86 % 1018,3 hPa 0,0 l/m 9,3 km/h N -4,3 C -5,2 C 21,7 km/h
11.12.2012 19:00 -2,2 C 85 % 1018,7 hPa 0,0 l/m 11,0 km/h N -4,3 C -6,7 C 23,7 km/h
11.12.2012 20:00 -2,3 C 86 % 1018,9 hPa 0,0 l/m 10,0 km/h N -4,3 C -5,9 C 23,7 km/h
11.12.2012 21:00 -2,1 C 82 % 1019,3 hPa 0,0 l/m 8,9 km/h N -4,8 C -4,7 C 22,9 km/h
11.12.2012 22:00 -2,0 C 78 % 1019,6 hPa 0,0 l/m 8,8 km/h N -5,4 C -4,4 C 22,1 km/h
11.12.2012 23:00 -2,2 C 79 % 1020,1 hPa 0,0 l/m 12,9 km/h N -5,4 C -8,2 C 27,8 km/h
12.12.2012 00:00 -2,6 C 84 % 1020,5 hPa 0,0 l/m 11,7 km/h N -5,0 C -7,7 C 24,9 km/h
12.12.2012 01:00 -2,8 C 82 % 1020,7 hPa 0,0 l/m 12,1 km/h N -5,4 C -8,2 C 27,3 km/h
12.12.2012 02:00 -2,9 C 78 % 1021,2 hPa 0,0 l/m 8,8 km/h N -6,3 C -5,5 C 20,5 km/h
12.12.2012 03:00 -3,1 C 74 % 1021,1 hPa 0,0 l/m 10,5 km/h N -7,1 C -7,3 C 25,7 km/h
12.12.2012 04:00 -3,4 C 72 % 1020,9 hPa 0,0 l/m 10,5 km/h N -7,8 C -7,6 C 24,5 km/h
12.12.2012 05:00 -3,8 C 71 % 1021,3 hPa 0,0 l/m 9,8 km/h N -8,4 C -7,5 C 23,7 km/h
12.12.2012 06:00 -4,3 C 71 % 1021,4 hPa 0,0 l/m 11,3 km/h N -8,8 C -9,3 C 25,4 km/h
12.12.2012 07:00 -4,4 C 70 % 1021,6 hPa 0,0 l/m 14,4 km/h N -8,9 C -11,8 C 32,6 km/h
12.12.2012 08:00 -4,2 C 75 % 1022,1 hPa 0,0 l/m 15,7 km/h N -8,0 C -12,5 C 31,8 km/h
12.12.2012 09:00 -3,9 C 75 % 1022,6 hPa 0,0 l/m 16,0 km/h N -7,7 C -12,3 C 31,4 km/h
12.12.2012 10:00 -3,4 C 73 % 1023,0 hPa 0,0 l/m 14,8 km/h N -7,6 C -10,9 C 32,6 km/h
12.12.2012 11:00 -3,2 C 70 % 1023,0 hPa 0,0 l/m 14,0 km/h N -8,0 C -10,1 C 31,8 km/h
12.12.2012 12:00 -2,7 C 65 % 1022,7 hPa 0,0 l/m 17,0 km/h N -8,3 C -11,5 C 34,6 km/h
12.12.2012 13:00 -3,1 C 65 % 1022,5 hPa 0,0 l/m 17,4 km/h N -8,7 C -12,1 C 37,8 km/h
12.12.2012 14:00 -3,3 C 65 % 1022,3 hPa 0,0 l/m 17,9 km/h N -9,0 C -12,8 C 39,8 km/h
12.12.2012 15:00 -3,8 C 66 % 1022,3 hPa 0,0 l/m 14,8 km/h N -9,2 C -11,4 C 33,0 km/h
12.12.2012 16:00 -3,8 C 65 % 1022,5 hPa 0,0 l/m 12,1 km/h N -9,4 C -9,5 C 29,0 km/h
12.12.2012 17:00 -3,9 C 64 % 1022,6 hPa 0,0 l/m 9,1 km/h N -9,6 C -6,9 C 22,9 km/h
12.12.2012 18:00 -3,6 C 67 % 1022,2 hPa 0,0 l/m 12,0 km/h N -8,8 C -9,1 C 27,8 km/h
12.12.2012 19:00 -3,5 C 70 % 1022,1 hPa 0,0 l/m 10,9 km/h N -8,1 C -8,1 C 26,5 km/h
12.12.2012 20:00 -3,2 C 70 % 1022,1 hPa 0,0 l/m 7,8 km/h N -7,9 C -5,0 C 19,7 km/h
12.12.2012 21:00 -3,2 C 70 % 1022,1 hPa 0,0 l/m 5,5 km/h N -7,9 C -3,2 C 14,9 km/h
12.12.2012 22:00 -3,8 C 69 % 1022,1 hPa 0,0 l/m 0,5 km/h N -8,6 C -3,8 C 5,6 km/h
12.12.2012 23:00 -5,9 C 72 % 1022,3 hPa 0,0 l/m 0,0 km/h N -10,1 C -5,9 C 0,8 km/h
13.12.2012 00:00 -7,1 C 78 % 1022,1 hPa 0,0 l/m 0,0 km/h N -10,2 C -7,1 C 0,4 km/h
13.12.2012 01:00 -6,6 C 83 % 1021,9 hPa 0,0 l/m 0,3 km/h N -9,1 C -6,6 C 2,4 km/h
13.12.2012 02:00 -6,5 C 83 % 1021,8 hPa 0,0 l/m 0,0 km/h N -8,9 C -6,5 C 0,4 km/h
13.12.2012 03:00 -6,3 C 84 % 1021,5 hPa 0,0 l/m 0,0 km/h N -8,6 C -6,3 C 0,0 km/h
13.12.2012 04:00 -6,3 C 84 % 1021,3 hPa 0,0 l/m 0,0 km/h N -8,5 C -6,3 C 0,0 km/h
13.12.2012 05:00 -7,5 C 83 % 1021,1 hPa 0,0 l/m 0,0 km/h N -9,9 C -7,5 C 0,0 km/h
13.12.2012 06:00 -9,0 C 84 % 1021,1 hPa 0,0 l/m 0,0 km/h N -11,3 C -9,0 C 0,0 km/h
13.12.2012 07:00 -9,5 C 85 % 1021,1 hPa 0,0 l/m 0,0 km/h N -11,6 C -9,5 C 0,0 km/h
13.12.2012 08:00 -9,0 C 85 % 1021,1 hPa 0,0 l/m 0,5 km/h N -11,0 C -9,0 C 3,2 km/h
13.12.2012 09:00 -6,3 C 84 % 1021,1 hPa 0,0 l/m 0,4 km/h N -8,5 C -6,3 C 2,0 km/h
13.12.2012 10:00 -3,5 C 75 % 1021,0 hPa 0,0 l/m 0,4 km/h N -7,3 C -3,5 C 3,6 km/h
13.12.2012 11:00 -3,0 C 69 % 1020,6 hPa 0,0 l/m 0,8 km/h N -7,9 C -3,0 C 6,0 km/h
13.12.2012 12:00 -3,0 C 69 % 1020,3 hPa 0,0 l/m 1,1 km/h N -7,9 C -3,0 C 5,6 km/h
13.12.2012 13:00 -2,9 C 70 % 1020,1 hPa 0,0 l/m 1,1 km/h N -7,7 C -2,9 C 8,8 km/h
13.12.2012 14:00 -2,8 C 71 % 1019,7 hPa 0,0 l/m 1,3 km/h N -7,3 C -2,8 C 6,4 km/h
13.12.2012 15:00 -3,5 C 73 % 1019,7 hPa 0,0 l/m 1,8 km/h N -7,7 C -3,5 C 8,5 km/h
13.12.2012 16:00 -5,2 C 78 % 1019,7 hPa 0,0 l/m 1,1 km/h N -8,5 C -5,2 C 7,2 km/h
13.12.2012 17:00 -6,3 C 80 % 1019,8 hPa 0,0 l/m 0,3 km/h N -9,1 C -6,3 C 4,4 km/h
13.12.2012 18:00 -7,5 C 81 % 1019,8 hPa 0,0 l/m 0,0 km/h N -10,2 C -7,5 C 0,0 km/h
13.12.2012 19:00 -8,9 C 82 % 1019,8 hPa 0,0 l/m 0,0 km/h N -11,4 C -8,9 C 0,8 km/h
13.12.2012 20:00 -9,6 C 83 % 1019,6 hPa 0,0 l/m 0,0 km/h N -11,9 C -9,6 C 0,0 km/h
13.12.2012 21:00 -10,1 C 84 % 1019,2 hPa 0,0 l/m 0,0 km/h N -12,3 C -10,1 C 0,0 km/h
13.12.2012 22:00 -10,4 C 85 % 1019,0 hPa 0,0 l/m 0,0 km/h N -12,5 C -10,4 C 0,0 km/h
13.12.2012 23:00 -10,7 C 85 % 1018,8 hPa 0,0 l/m 0,0 km/h N -12,7 C -10,7 C 0,0 km/h
14.12.2012 00:00 -11,0 C 86 % 1018,5 hPa 0,0 l/m 0,0 km/h N -12,9 C -11,0 C 0,4 km/h
14.12.2012 01:00 -11,3 C 86 % 1018,2 hPa 0,0 l/m 0,0 km/h N -13,2 C -11,3 C 0,0 km/h
14.12.2012 02:00 -11,3 C 86 % 1018,3 hPa 0,0 l/m 0,0 km/h N -13,2 C -11,3 C 0,0 km/h
14.12.2012 03:00 -11,3 C 86 % 1017,8 hPa 0,0 l/m 0,0 km/h N -13,2 C -11,3 C 0,0 km/h
14.12.2012 04:00 -10,6 C 86 % 1017,8 hPa 0,0 l/m 0,3 km/h N -12,5 C -10,6 C 2,4 km/h
14.12.2012 05:00 -9,9 C 86 % 1017,6 hPa 0,0 l/m 0,0 km/h N -11,8 C -9,9 C 0,4 km/h
14.12.2012 06:00 -9,6 C 86 % 1017,7 hPa 0,0 l/m 0,0 km/h N -11,5 C -9,6 C 0,4 km/h
14.12.2012 07:00 -8,5 C 86 % 1017,7 hPa 0,0 l/m 0,2 km/h N -10,4 C -8,5 C 3,2 km/h
14.12.2012 08:00 -7,7 C 86 % 1017,8 hPa 0,0 l/m 0,4 km/h N -9,6 C -7,7 C 4,0 km/h
14.12.2012 09:00 -6,5 C 86 % 1017,9 hPa 0,0 l/m 0,3 km/h N -8,5 C -6,5 C 3,6 km/h
14.12.2012 10:00 -5,0 C 86 % 1017,8 hPa 0,0 l/m 0,5 km/h N -7,0 C -5,0 C 4,4 km/h
14.12.2012 11:00 -3,9 C 86 % 1017,2 hPa 0,0 l/m 0,4 km/h N -5,8 C -3,9 C 4,0 km/h
14.12.2012 12:00 -3,2 C 84 % 1016,6 hPa 0,0 l/m 0,8 km/h N -5,5 C -3,2 C 4,4 km/h
14.12.2012 13:00 -2,8 C 83 % 1015,9 hPa 0,0 l/m 0,5 km/h N -5,3 C -2,8 C 4,0 km/h
14.12.2012 14:00 -2,2 C 81 % 1015,3 hPa 0,0 l/m 0,6 km/h N -5,0 C -2,2 C 3,6 km/h
14.12.2012 15:00 -2,3 C 80 % 1015,0 hPa 0,0 l/m 0,3 km/h N -5,2 C -2,3 C 2,4 km/h
14.12.2012 16:00 -3,3 C 81 % 1014,5 hPa 0,0 l/m 0,0 km/h N -6,2 C -3,3 C 0,0 km/h
14.12.2012 17:00 -4,9 C 82 % 1014,2 hPa 0,0 l/m 0,0 km/h N -7,5 C -4,9 C 0,0 km/h
14.12.2012 18:00 -6,0 C 84 % 1013,6 hPa 0,0 l/m 0,0 km/h N -8,3 C -6,0 C 0,0 km/h
14.12.2012 19:00 -6,7 C 85 % 1012,8 hPa 0,0 l/m 0,0 km/h N -8,8 C -6,7 C 0,0 km/h
14.12.2012 20:00 -7,0 C 86 % 1012,0 hPa 0,0 l/m 0,0 km/h N -9,0 C -7,0 C 0,8 km/h
14.12.2012 21:00 -7,2 C 86 % 1011,2 hPa 0,0 l/m 0,1 km/h N -9,1 C -7,2 C 0,8 km/h
14.12.2012 22:00 -6,8 C 86 % 1010,4 hPa 0,0 l/m 0,0 km/h N -8,8 C -6,8 C 0,8 km/h
14.12.2012 23:00 -6,2 C 86 % 1009,7 hPa 0,0 l/m 0,1 km/h N -8,2 C -6,2 C 1,2 km/h
15.12.2012 00:00 -5,3 C 85 % 1008,8 hPa 0,0 l/m 0,4 km/h N -7,5 C -5,3 C 4,0 km/h
15.12.2012 01:00 -4,4 C 85 % 1008,1 hPa 0,0 l/m 0,2 km/h N -6,7 C -4,4 C 2,0 km/h
15.12.2012 02:00 -3,7 C 83 % 1007,6 hPa 0,0 l/m 0,7 km/h N -6,1 C -3,7 C 4,8 km/h
15.12.2012 03:00 -2,5 C 83 % 1006,9 hPa 0,0 l/m 0,4 km/h N -5,0 C -2,5 C 4,0 km/h
15.12.2012 04:00 -2,1 C 82 % 1006,8 hPa 0,0 l/m 0,1 km/h N -4,7 C -2,1 C 2,4 km/h
15.12.2012 05:00 -0,3 C 81 % 1006,7 hPa 0,0 l/m 0,4 km/h N -3,3 C -0,3 C 4,0 km/h
15.12.2012 06:00 0,8 C 80 % 1007,1 hPa 0,0 l/m 0,2 km/h N -2,3 C 0,8 C 2,8 km/h
15.12.2012 07:00 0,8 C 81 % 1007,5 hPa 0,3 l/m 1,2 km/h N -2,1 C 0,8 C 5,6 km/h
15.12.2012 08:00 0,8 C 81 % 1007,8 hPa 0,0 l/m 0,3 km/h N -2,1 C 0,8 C 3,2 km/h
15.12.2012 09:00 1,1 C 80 % 1007,6 hPa 0,0 l/m 0,3 km/h N -1,9 C 1,1 C 3,2 km/h
15.12.2012 10:00 1,8 C 80 % 1007,9 hPa 0,0 l/m 0,6 km/h N -1,3 C 1,8 C 5,6 km/h
15.12.2012 11:00 2,3 C 80 % 1008,1 hPa 0,0 l/m 0,9 km/h N -0,8 C 2,3 C 4,8 km/h
15.12.2012 12:00 2,5 C 81 % 1008,3 hPa 1,6 l/m 0,7 km/h N -0,4 C 2,5 C 5,6 km/h
15.12.2012 13:00 2,6 C 81 % 1009,3 hPa 1,0 l/m 4,8 km/h N -0,3 C 2,6 C 12,5 km/h
15.12.2012 14:00 2,9 C 82 % 1009,6 hPa 0,0 l/m 2,1 km/h N 0,1 C 2,9 C 8,0 km/h
15.12.2012 15:00 2,7 C 82 % 1009,8 hPa 0,0 l/m 0,4 km/h N -0,0 C 2,7 C 2,8 km/h
15.12.2012 16:00 2,6 C 82 % 1010,1 hPa 1,0 l/m 0,9 km/h N -0,1 C 2,6 C 4,0 km/h
15.12.2012 17:00 2,5 C 82 % 1010,6 hPa 1,8 l/m 1,0 km/h N -0,2 C 2,5 C 6,0 km/h
15.12.2012 18:00 2,3 C 82 % 1010,9 hPa 1,3 l/m 0,2 km/h N -0,4 C 2,3 C 0,8 km/h
15.12.2012 19:00 2,2 C 82 % 1010,9 hPa 0,0 l/m 0,0 km/h N -0,5 C 2,2 C 0,4 km/h
15.12.2012 20:00 2,1 C 81 % 1011,1 hPa 0,3 l/m 0,0 km/h N -0,8 C 2,1 C 0,0 km/h
15.12.2012 21:00 2,0 C 81 % 1011,4 hPa 0,0 l/m 0,1 km/h N -1,0 C 2,0 C 0,8 km/h
15.12.2012 22:00 1,7 C 81 % 1011,8 hPa 0,0 l/m 0,2 km/h N -1,2 C 1,7 C 3,2 km/h
15.12.2012 23:00 1,8 C 81 % 1011,8 hPa 0,0 l/m 0,4 km/h N -1,1 C 1,8 C 3,6 km/h
16.12.2012 00:00 5,4 C 78 % 1011,9 hPa 0,0 l/m 4,0 km/h N 1,9 C 5,1 C 14,5 km/h
16.12.2012 01:00 6,9 C 83 % 1012,3 hPa 0,0 l/m 5,4 km/h N 4,3 C 6,8 C 17,7 km/h
16.12.2012 02:00 7,3 C 79 % 1012,4 hPa 0,0 l/m 3,2 km/h N 3,9 C 7,2 C 14,9 km/h
16.12.2012 03:00 6,1 C 80 % 1012,2 hPa 0,0 l/m 0,2 km/h N 2,9 C 6,1 C 2,8 km/h
16.12.2012 04:00 3,9 C 82 % 1012,5 hPa 0,0 l/m 0,1 km/h N 1,2 C 3,9 C 2,0 km/h
16.12.2012 05:00 2,9 C 85 % 1012,7 hPa 0,0 l/m 0,2 km/h N 0,6 C 2,9 C 2,8 km/h
16.12.2012 06:00 2,1 C 85 % 1012,4 hPa 0,0 l/m 0,0 km/h N -0,1 C 2,1 C 0,8 km/h
16.12.2012 07:00 1,9 C 85 % 1012,6 hPa 0,0 l/m 0,0 km/h N -0,3 C 1,9 C 0,0 km/h
16.12.2012 08:00 2,0 C 84 % 1012,8 hPa 0,0 l/m 0,5 km/h N -0,4 C 2,0 C 3,6 km/h
16.12.2012 09:00 2,6 C 83 % 1013,4 hPa 0,0 l/m 0,2 km/h N -0,0 C 2,6 C 3,2 km/h
16.12.2012 10:00 2,5 C 83 % 1013,8 hPa 0,0 l/m 0,8 km/h N -0,1 C 2,5 C 4,8 km/h
16.12.2012 11:00 2,6 C 82 % 1013,8 hPa 0,0 l/m 0,6 km/h N -0,2 C 2,6 C 4,8 km/h
16.12.2012 12:00 2,5 C 82 % 1013,3 hPa 0,0 l/m 0,1 km/h N -0,3 C 2,5 C 1,2 km/h
16.12.2012 13:00 3,1 C 82 % 1013,2 hPa 0,0 l/m 0,6 km/h N 0,3 C 3,1 C 5,2 km/h
16.12.2012 14:00 3,2 C 83 % 1012,6 hPa 0,0 l/m 0,1 km/h N 0,5 C 3,2 C 2,0 km/h
16.12.2012 15:00 3,0 C 83 % 1013,2 hPa 0,0 l/m 0,5 km/h N 0,4 C 3,0 C 4,0 km/h
16.12.2012 16:00 2,1 C 84 % 1013,2 hPa 0,0 l/m 0,1 km/h N -0,3 C 2,1 C 1,2 km/h
16.12.2012 17:00 1,0 C 84 % 1013,4 hPa 0,0 l/m 0,0 km/h N -1,4 C 1,0 C 0,8 km/h
16.12.2012 18:00 1,2 C 83 % 1013,3 hPa 0,0 l/m 0,0 km/h N -1,4 C 1,2 C 0,4 km/h
16.12.2012 19:00 1,2 C 83 % 1013,5 hPa 0,0 l/m 0,0 km/h N -1,5 C 1,2 C 0,4 km/h
16.12.2012 20:00 1,4 C 82 % 1013,4 hPa 0,0 l/m 0,1 km/h N -1,4 C 1,4 C 1,6 km/h
16.12.2012 21:00 1,6 C 82 % 1013,1 hPa 0,0 l/m 0,4 km/h N -1,2 C 1,6 C 3,2 km/h
16.12.2012 22:00 1,6 C 81 % 1012,8 hPa 0,0 l/m 0,2 km/h N -1,3 C 1,6 C 2,8 km/h
16.12.2012 23:00 1,3 C 81 % 1012,7 hPa 0,0 l/m 0,1 km/h N -1,5 C 1,3 C 0,8 km/h
Min-Datum _ 14.12.12 10.12.12 10.12.12 - 12.12.12 - 14.12.12 12.12.12 12.12.12
_ Min-Zeit 02:15 13:15 13:15 - 22:45 - 02:00 14:30 22:45
Minimum _ -11,5 C 63 % 1006,1 hPa - 0,0 km/h - -13,4 C -14,0 C 0,0 km/h
Max-Datum _ 16.12.12 11.12.12 12.12.12 15.12.12 12.12.12 - 16.12.12 16.12.12 12.12.12
_ Max-Zeit 02:00 17:15 10:15 17:00 14:30 - 01:30 02:15 14:15
Maximum _ 7,6 C 86 % 1023,1 hPa 1,8 l/m 19,7 km/h
N
- 4,6 C 7,5 C 46,7 km/h
N
Durchschnitt _ -1,7 C 79 % 1014,6 hPa #9,4 l/m 3,7 km/h N -4,8 C -2,8 C 10,7 km/h